Decoded Metar for KLSF (FORT BENNING in GA, USA) (IATA:LSF) | Meteo·Mobile Aviation Weather
aviador You're here:

KLSF Decoded Metar

FORT BENNING in GA, USA
Report Time2018-09-24 06:56:00
UTC Time2018-09-24 07:12:51
Flight Rules vfr VFR
WindCalm
Visibility9999 m
Phenomena:N/A
Clouds:Broken 100 Hf
Ceiling10,000 ft
Temp23°C (ISA +8)
Dew Point23°C (100% RH)
QNH1016 hPa
Density Alt1,486 ft
Elevation233 ft
Report Wrong Elevation
Raw Report
KLSF 240656Z AUTO 00000KT 10SM BKN100 23/23 A3001 RMK AO2 SLP165
T02290229 $=

Extra information for KLSF:More info

Metar Taf Metar & Taf Last 4 Metars F.Rules Stats Wind Profile Meteogram Temp Stats Airport Information Weather charts Add Link Nearby VenuesMetar ALERT Operation Metar Decoded Social comments

AIRNAV info for KLSF